Monroe, MI (48161)

03:27 EST 21. Prosinec 2014 (GMT -0500)
Raisin Ridge | Change Station
CLOSE
Current Station
Osobní povětrnostní stanice
Location: Monroe, MI
Nadmořská výška: 614 ft
Poblíž povětrnostní stanice

Výška 614 ft 41.93 °N, 83.47 °W | Updated 60 seconds ago

Clear
Jasno
25.7 °F
Pocit jako 26 °F
S
0.0
Vítr proměnlivý Vítr od JZ

Dnes
Vysoké -- | Nízké -- °F
--% Možnost srážek
Včera
Vysoké -- | Nízké -- °F
Precip. -- inčů
7:58 AM 5:05 PM
Ubývající srpek, 1% visible
Tlak 30.29 inčů
Viditelnost 5.0 mílí
Zataženo Jasno
Ochlazování větrem 26 °F
Rosný bod 24 °F
Vlhkost 91%
Dešťové srážky 0.00 inčů
Sněhová pokrývka Není k dispozici
UV záření 0 ze 12
Pyl .10 ze 12
Kvalita ovzduší Není k dispozici
Flu Activity Není k dispozici
METAR KTTF 210812Z AUTO 00000KT 5SM BR CLR M03/M04 A3029 RMK AO2

More Conditions Fewer Conditions

Tlak 30.29 inčů
Viditelnost 5.0 mílí
Zataženo Jasno
Ochlazování větrem 26 °F
Rosný bod 24 °F
Vlhkost 91%
Dešťové srážky 0.00 inčů
Sněhová pokrývka Není k dispozici
UV záření 0 ze 12
Pyl .10 ze 12
Kvalita ovzduší Není k dispozici
Flu Activity Není k dispozici
METAR KTTF 210812Z AUTO 00000KT 5SM BR CLR M03/M04 A3029 RMK AO2

More Conditions Fewer Conditions

10-Day Weather Forecast

Almanac

Astronomie

Dec. 21, 2014 Východ Západ
Skutečný čas
Občanský soumrak
Námořní soumrak
Astronomický soumrak
Měsíc
Délka denního světla
Délka dne
Tomorrow will be .
, % of the Moon is Illuminated

Dnešní extrémy

State Highs State Lows

Community

WunderPhotos

Upload Photos

1,779,362 snímků staženo!

WunderBlogs® & News

Nearby

Kvalita ovzduší

  Kvalita ovzduší Index kvality ovzduší Polutant
Not available.

Výška sněhu

Station Hloubka Nadmořská výška

Seizmická činnost

Město Distance Mag. Čas & datum
Minimální zobrazený rozsah je 2.5.

Pobřežní teplota vody

Lokalita Teplota

Poblíž povětrnostní stanice